sensor_id;sensor_type;location;lat;lon;timestamp;pressure;altitude;pressure_sealevel;temperature;humidity
49342;BME280;35210;41.606;-87.602;2023-07-29T00:02:27;99177.06;;;34.28;82.42
49342;BME280;35210;41.606;-87.602;2023-07-29T00:04:57;99168.00;;;34.28;82.77
49342;BME280;35210;41.606;-87.602;2023-07-29T00:07:25;99156.78;;;34.29;83.12
49342;BME280;35210;41.606;-87.602;2023-07-29T00:09:53;99143.88;;;34.30;83.29
49342;BME280;35210;41.606;-87.602;2023-07-29T00:12:21;99138.41;;;34.35;83.08
49342;BME280;35210;41.606;-87.602;2023-07-29T00:14:51;99145.53;;;34.36;81.93
49342;BME280;35210;41.606;-87.602;2023-07-29T00:17:20;99138.41;;;34.35;82.02
49342;BME280;35210;41.606;-87.602;2023-07-29T00:19:49;99135.66;;;34.30;82.05
49342;BME280;35210;41.606;-87.602;2023-07-29T00:22:17;99136.78;;;34.34;82.07
49342;BME280;35210;41.606;-87.602;2023-07-29T00:24:51;99133.50;;;34.32;81.67
49342;BME280;35210;41.606;-87.602;2023-07-29T00:27:21;99127.19;;;34.32;82.10
49342;BME280;35210;41.606;-87.602;2023-07-29T00:29:51;99120.59;;;34.27;83.12
49342;BME280;35210;41.606;-87.602;2023-07-29T00:32:19;99109.69;;;34.17;83.37
49342;BME280;35210;41.606;-87.602;2023-07-29T00:34:47;99118.97;;;34.21;83.00
49342;BME280;35210;41.606;-87.602;2023-07-29T00:37:15;99091.09;;;34.14;83.52
49342;BME280;35210;41.606;-87.602;2023-07-29T00:39:44;99091.94;;;34.10;83.81
49342;BME280;35210;41.606;-87.602;2023-07-29T00:42:12;99092.47;;;34.12;83.45
49342;BME280;35210;41.606;-87.602;2023-07-29T00:44:40;99095.22;;;34.12;83.71
49342;BME280;35210;41.606;-87.602;2023-07-29T00:47:11;99083.16;;;34.08;84.52
49342;BME280;35210;41.606;-87.602;2023-07-29T00:49:40;99062.88;;;34.09;85.01
49342;BME280;35210;41.606;-87.602;2023-07-29T00:52:09;99064.00;;;34.08;84.65
49342;BME280;35210;41.606;-87.602;2023-07-29T00:54:38;99064.53;;;34.05;85.15
49342;BME280;35210;41.606;-87.602;2023-07-29T00:57:08;99063.16;;;34.07;85.18
49342;BME280;35210;41.606;-87.602;2023-07-29T00:59:38;99060.72;;;34.06;85.09
49342;BME280;35210;41.606;-87.602;2023-07-29T01:02:10;99057.97;;;34.06;85.00
49342;BME280;35210;41.606;-87.602;2023-07-29T01:04:38;99061.81;;;34.05;85.16
49342;BME280;35210;41.606;-87.602;2023-07-29T01:07:14;99051.94;;;34.04;85.15
49342;BME280;35210;41.606;-87.602;2023-07-29T01:09:53;99038.81;;;34.01;85.57
49342;BME280;35210;41.606;-87.602;2023-07-29T01:12:30;99022.94;;;33.98;85.86
49342;BME280;35210;41.606;-87.602;2023-07-29T01:15:04;99008.69;;;33.95;86.28
49342;BME280;35210;41.606;-87.602;2023-07-29T01:17:42;98997.75;;;33.95;86.13
49342;BME280;35210;41.606;-87.602;2023-07-29T01:20:14;98976.97;;;33.89;86.48
49342;BME280;35210;41.606;-87.602;2023-07-29T01:22:44;98978.34;;;33.87;86.16
49342;BME280;35210;41.606;-87.602;2023-07-29T01:25:14;98981.91;;;33.87;86.51
49342;BME280;35210;41.606;-87.602;2023-07-29T01:27:42;98980.81;;;33.83;86.07
49342;BME280;35210;41.606;-87.602;2023-07-29T01:30:11;98965.22;;;33.74;86.95
49342;BME280;35210;41.606;-87.602;2023-07-29T01:32:54;98966.88;;;33.70;86.82
49342;BME280;35210;41.606;-87.602;2023-07-29T01:35:31;98973.22;;;33.60;87.05
49342;BME280;35210;41.606;-87.602;2023-07-29T01:38:05;98974.06;;;33.55;87.15
49342;BME280;35210;41.606;-87.602;2023-07-29T01:40:36;98975.97;;;33.55;87.13
49342;BME280;35210;41.606;-87.602;2023-07-29T01:43:05;98977.06;;;33.59;86.74
49342;BME280;35210;41.606;-87.602;2023-07-29T01:45:36;98971.84;;;33.62;86.88
49342;BME280;35210;41.606;-87.602;2023-07-29T01:48:06;98976.50;;;33.62;86.63
49342;BME280;35210;41.606;-87.602;2023-07-29T01:50:34;98971.03;;;33.57;87.59
49342;BME280;35210;41.606;-87.602;2023-07-29T01:53:03;98951.59;;;33.58;86.99
49342;BME280;35210;41.606;-87.602;2023-07-29T01:55:31;98951.34;;;33.50;87.86
49342;BME280;35210;41.606;-87.602;2023-07-29T01:58:01;98971.31;;;33.55;87.56
49342;BME280;35210;41.606;-87.602;2023-07-29T02:00:30;98969.94;;;33.58;87.31
49342;BME280;35210;41.606;-87.602;2023-07-29T02:02:59;98963.91;;;33.61;87.52
49342;BME280;35210;41.606;-87.602;2023-07-29T02:05:28;98949.66;;;33.59;87.67
49342;BME280;35210;41.606;-87.602;2023-07-29T02:07:56;98953.50;;;33.58;87.79
49342;BME280;35210;41.606;-87.602;2023-07-29T02:10:24;98954.06;;;33.55;88.18
49342;BME280;35210;41.606;-87.602;2023-07-29T02:12:52;98955.19;;;33.44;88.51
49342;BME280;35210;41.606;-87.602;2023-07-29T02:15:23;98985.84;;;33.51;88.15
49342;BME280;35210;41.606;-87.602;2023-07-29T02:17:51;98996.53;;;33.47;88.06
49342;BME280;35210;41.606;-87.602;2023-07-29T02:20:19;99004.47;;;33.44;88.82
49342;BME280;35210;41.606;-87.602;2023-07-29T02:22:48;99016.81;;;33.36;89.31
49342;BME280;35210;41.606;-87.602;2023-07-29T02:25:17;99016.00;;;33.36;89.38
49342;BME280;35210;41.606;-87.602;2023-07-29T02:27:45;99002.88;;;33.38;89.87
49342;BME280;35210;41.606;-87.602;2023-07-29T02:30:14;98984.25;;;33.35;90.01
49342;BME280;35210;41.606;-87.602;2023-07-29T02:32:44;98996.84;;;33.30;90.20
49342;BME280;35210;41.606;-87.602;2023-07-29T02:35:13;98992.19;;;33.26;90.75
49342;BME280;35210;41.606;-87.602;2023-07-29T02:37:41;98979.88;;;33.23;90.96
49342;BME280;35210;41.606;-87.602;2023-07-29T02:40:11;98972.78;;;33.17;91.53
49342;BME280;35210;41.606;-87.602;2023-07-29T02:42:39;98978.53;;;33.11;92.17
49342;BME280;35210;41.606;-87.602;2023-07-29T02:45:08;98976.34;;;33.13;91.81
49342;BME280;35210;41.606;-87.602;2023-07-29T02:47:37;98975.53;;;32.97;91.87
49342;BME280;35210;41.606;-87.602;2023-07-29T02:50:09;98988.66;;;33.05;91.59
49342;BME280;35210;41.606;-87.602;2023-07-29T02:52:37;98991.41;;;33.05;91.18
49342;BME280;35210;41.606;-87.602;2023-07-29T02:55:06;99002.34;;;33.10;90.76
49342;BME280;35210;41.606;-87.602;2023-07-29T02:57:35;99006.16;;;33.09;90.07
49342;BME280;35210;41.606;-87.602;2023-07-29T03:00:04;99007.25;;;33.13;90.58
49342;BME280;35210;41.606;-87.602;2023-07-29T03:02:33;99005.59;;;33.17;89.75
49342;BME280;35210;41.606;-87.602;2023-07-29T03:05:01;99011.63;;;33.14;90.09
49342;BME280;35210;41.606;-87.602;2023-07-29T03:07:31;99017.66;;;33.16;89.78
49342;BME280;35210;41.606;-87.602;2023-07-29T03:09:59;99024.75;;;33.17;88.99
49342;BME280;35210;41.606;-87.602;2023-07-29T03:12:28;99025.31;;;33.14;89.62
49342;BME280;35210;41.606;-87.602;2023-07-29T03:14:56;99024.22;;;33.10;89.76
49342;BME280;35210;41.606;-87.602;2023-07-29T03:17:25;99030.78;;;33.14;90.00
49342;BME280;35210;41.606;-87.602;2023-07-29T03:19:57;99045.00;;;33.16;89.76
49342;BME280;35210;41.606;-87.602;2023-07-29T03:22:25;99031.88;;;33.18;89.45
49342;BME280;35210;41.606;-87.602;2023-07-29T03:24:54;99030.78;;;33.14;89.78
49342;BME280;35210;41.606;-87.602;2023-07-29T03:27:23;99030.78;;;33.14;89.43
49342;BME280;35210;41.606;-87.602;2023-07-29T03:29:52;99028.31;;;33.13;89.30
49342;BME280;35210;41.606;-87.602;2023-07-29T03:32:20;99028.88;;;33.15;88.91
49342;BME280;35210;41.606;-87.602;2023-07-29T03:34:48;99030.78;;;33.14;88.55
49342;BME280;35210;41.606;-87.602;2023-07-29T03:37:18;99049.38;;;33.17;88.47
49342;BME280;35210;41.606;-87.602;2023-07-29T03:39:48;99031.88;;;33.18;88.48
49342;BME280;35210;41.606;-87.602;2023-07-29T03:42:20;98984.81;;;33.16;88.91
49342;BME280;35210;41.606;-87.602;2023-07-29T03:44:48;98990.28;;;33.16;88.73
49342;BME280;35210;41.606;-87.602;2023-07-29T03:47:16;99014.34;;;33.19;88.40
49342;BME280;35210;41.606;-87.602;2023-07-29T03:49:45;99026.41;;;33.18;88.24
49342;BME280;35210;41.606;-87.602;2023-07-29T03:52:13;99020.94;;;33.18;88.09
49342;BME280;35210;41.606;-87.602;2023-07-29T03:54:41;99023.66;;;33.18;88.28
49342;BME280;35210;41.606;-87.602;2023-07-29T03:57:13;99016.56;;;33.17;88.49
49342;BME280;35210;41.606;-87.602;2023-07-29T03:59:44;99003.41;;;33.19;87.98
49342;BME280;35210;41.606;-87.602;2023-07-29T04:02:12;98996.31;;;33.13;88.04
49342;BME280;35210;41.606;-87.602;2023-07-29T04:04:40;98988.91;;;33.14;87.73
49342;BME280;35210;41.606;-87.602;2023-07-29T04:07:14;99002.59;;;33.14;87.71
49342;BME280;35210;41.606;-87.602;2023-07-29T04:09:44;99014.09;;;33.11;87.77
49342;BME280;35210;41.606;-87.602;2023-07-29T04:12:13;99054.31;;;33.10;87.43
49342;BME280;35210;41.606;-87.602;2023-07-29T04:14:43;99158.25;;;33.10;88.43
49342;BME280;35210;41.606;-87.602;2023-07-29T04:17:12;99171.34;;;32.93;74.03
49342;BME280;35210;41.606;-87.602;2023-07-29T04:19:41;99109.06;;;32.22;66.14
49342;BME280;35210;41.606;-87.602;2023-07-29T04:22:09;99130.09;;;31.37;67.29
49342;BME280;35210;41.606;-87.602;2023-07-29T04:24:37;99165.50;;;30.79;67.67
49342;BME280;35210;41.606;-87.602;2023-07-29T04:27:06;99278.91;;;30.02;70.29
49342;BME280;35210;41.606;-87.602;2023-07-29T04:29:35;99267.78;;;29.42;75.58
49342;BME280;35210;41.606;-87.602;2023-07-29T04:32:06;99397.13;;;28.74;83.58
49342;BME280;35210;41.606;-87.602;2023-07-29T04:36:20;99464.19;;;27.79;91.37
49342;BME280;35210;41.606;-87.602;2023-07-29T04:38:48;99397.56;;;27.16;95.59
49342;BME280;35210;41.606;-87.602;2023-07-29T04:41:17;99399.16;;;26.63;98.95
49342;BME280;35210;41.606;-87.602;2023-07-29T04:43:45;99358.66;;;26.25;100.00
49342;BME280;35210;41.606;-87.602;2023-07-29T04:46:13;99305.53;;;26.05;100.00
49342;BME280;35210;41.606;-87.602;2023-07-29T04:48:41;99242.88;;;25.83;100.00
49342;BME280;35210;41.606;-87.602;2023-07-29T04:51:10;99234.28;;;25.68;100.00
49342;BME280;35210;41.606;-87.602;2023-07-29T04:53:39;99241.97;;;25.33;100.00
49342;BME280;35210;41.606;-87.602;2023-07-29T04:56:09;99246.59;;;25.26;100.00
49342;BME280;35210;41.606;-87.602;2023-07-29T04:58:37;99245.44;;;25.15;100.00
49342;BME280;35210;41.606;-87.602;2023-07-29T05:01:07;99253.75;;;25.14;100.00
49342;BME280;35210;41.606;-87.602;2023-07-29T05:03:35;99274.19;;;25.03;100.00
49342;BME280;35210;41.606;-87.602;2023-07-29T05:06:06;99290.16;;;25.05;100.00
49342;BME280;35210;41.606;-87.602;2023-07-29T05:08:34;99303.28;;;25.01;100.00
49342;BME280;35210;41.606;-87.602;2023-07-29T05:11:04;99312.22;;;25.02;100.00
49342;BME280;35210;41.606;-87.602;2023-07-29T05:13:33;99299.50;;;25.09;100.00
49342;BME280;35210;41.606;-87.602;2023-07-29T05:16:01;99287.28;;;25.00;100.00
49342;BME280;35210;41.606;-87.602;2023-07-29T05:18:29;99320.31;;;25.02;100.00
49342;BME280;35210;41.606;-87.602;2023-07-29T05:20:57;99324.47;;;24.91;100.00
49342;BME280;35210;41.606;-87.602;2023-07-29T05:23:26;99355.25;;;24.97;100.00
49342;BME280;35210;41.606;-87.602;2023-07-29T05:25:54;99372.91;;;24.99;100.00
49342;BME280;35210;41.606;-87.602;2023-07-29T05:28:25;99393.03;;;25.10;100.00
49342;BME280;35210;41.606;-87.602;2023-07-29T05:30:54;99424.38;;;25.24;100.00
49342;BME280;35210;41.606;-87.602;2023-07-29T05:33:25;99437.63;;;25.32;100.00
49342;BME280;35210;41.606;-87.602;2023-07-29T05:35:54;99420.34;;;25.33;100.00
49342;BME280;35210;41.606;-87.602;2023-07-29T05:38:22;99397.47;;;25.36;100.00
49342;BME280;35210;41.606;-87.602;2023-07-29T05:40:51;99413.06;;;25.40;100.00
49342;BME280;35210;41.606;-87.602;2023-07-29T05:43:20;99451.31;;;25.44;100.00
49342;BME280;35210;41.606;-87.602;2023-07-29T05:45:50;99430.66;;;25.56;100.00
49342;BME280;35210;41.606;-87.602;2023-07-29T05:48:19;99428.97;;;25.62;100.00
49342;BME280;35210;41.606;-87.602;2023-07-29T05:50:48;99420.22;;;25.73;100.00
49342;BME280;35210;41.606;-87.602;2023-07-29T05:53:18;99428.31;;;25.73;100.00
49342;BME280;35210;41.606;-87.602;2023-07-29T05:55:46;99434.34;;;25.75;100.00
49342;BME280;35210;41.606;-87.602;2023-07-29T05:58:14;99442.66;;;25.80;100.00
49342;BME280;35210;41.606;-87.602;2023-07-29T06:00:43;99428.88;;;25.88;100.00
49342;BME280;35210;41.606;-87.602;2023-07-29T06:03:13;99427.59;;;25.91;100.00
49342;BME280;35210;41.606;-87.602;2023-07-29T06:05:41;99397.19;;;25.95;100.00
49342;BME280;35210;41.606;-87.602;2023-07-29T06:08:09;99359.72;;;25.99;100.00
49342;BME280;35210;41.606;-87.602;2023-07-29T06:10:37;99335.94;;;26.01;100.00
49342;BME280;35210;41.606;-87.602;2023-07-29T06:13:05;99310.19;;;25.98;100.00
49342;BME280;35210;41.606;-87.602;2023-07-29T06:15:34;99261.72;;;25.97;100.00
49342;BME280;35210;41.606;-87.602;2023-07-29T06:18:03;99232.91;;;25.84;100.00
49342;BME280;35210;41.606;-87.602;2023-07-29T06:20:33;99219.38;;;25.84;100.00
49342;BME280;35210;41.606;-87.602;2023-07-29T06:23:01;99196.47;;;25.86;100.00
49342;BME280;35210;41.606;-87.602;2023-07-29T06:25:29;99170.22;;;25.87;100.00
49342;BME280;35210;41.606;-87.602;2023-07-29T06:27:57;99123.81;;;25.90;100.00
49342;BME280;35210;41.606;-87.602;2023-07-29T06:30:26;99052.47;;;26.03;100.00
49342;BME280;35210;41.606;-87.602;2023-07-29T06:32:54;99006.59;;;25.96;100.00
49342;BME280;35210;41.606;-87.602;2023-07-29T06:35:22;99013.72;;;25.91;100.00
49342;BME280;35210;41.606;-87.602;2023-07-29T06:37:52;99026.28;;;25.85;100.00
49342;BME280;35210;41.606;-87.602;2023-07-29T06:40:20;99063.91;;;25.86;100.00
49342;BME280;35210;41.606;-87.602;2023-07-29T06:42:48;99090.06;;;25.93;100.00
49342;BME280;35210;41.606;-87.602;2023-07-29T06:45:18;99069.25;;;25.93;100.00
49342;BME280;35210;41.606;-87.602;2023-07-29T06:47:46;99045.47;;;25.59;100.00
49342;BME280;35210;41.606;-87.602;2023-07-29T06:50:15;99063.78;;;25.57;100.00
49342;BME280;35210;41.606;-87.602;2023-07-29T06:52:43;99071.22;;;25.61;100.00
49342;BME280;35210;41.606;-87.602;2023-07-29T06:55:13;99081.81;;;25.63;100.00
49342;BME280;35210;41.606;-87.602;2023-07-29T06:57:41;99101.75;;;25.68;100.00
49342;BME280;35210;41.606;-87.602;2023-07-29T07:00:11;99124.38;;;25.74;100.00
49342;BME280;35210;41.606;-87.602;2023-07-29T07:02:39;99149.50;;;25.81;100.00
49342;BME280;35210;41.606;-87.602;2023-07-29T07:05:08;99172.94;;;25.87;100.00
49342;BME280;35210;41.606;-87.602;2023-07-29T07:07:36;99173.31;;;25.91;100.00
49342;BME280;35210;41.606;-87.602;2023-07-29T07:10:05;99170.63;;;25.91;100.00
49342;BME280;35210;41.606;-87.602;2023-07-29T07:12:34;99163.16;;;25.86;100.00
49342;BME280;35210;41.606;-87.602;2023-07-29T07:15:03;99154.84;;;25.88;100.00
49342;BME280;35210;41.606;-87.602;2023-07-29T07:17:32;99151.34;;;25.55;100.00
49342;BME280;35210;41.606;-87.602;2023-07-29T07:20:00;99154.22;;;25.36;100.00
49342;BME280;35210;41.606;-87.602;2023-07-29T07:22:28;99190.31;;;25.48;100.00
49342;BME280;35210;41.606;-87.602;2023-07-29T07:24:56;99207.84;;;25.64;100.00
49342;BME280;35210;41.606;-87.602;2023-07-29T07:27:24;99222.44;;;25.63;100.00
49342;BME280;35210;41.606;-87.602;2023-07-29T07:29:54;99240.94;;;25.66;100.00
49342;BME280;35210;41.606;-87.602;2023-07-29T07:32:22;99245.91;;;25.69;100.00
49342;BME280;35210;41.606;-87.602;2023-07-29T07:34:50;99257.94;;;25.73;100.00
49342;BME280;35210;41.606;-87.602;2023-07-29T07:37:18;99259.16;;;25.77;100.00
49342;BME280;35210;41.606;-87.602;2023-07-29T07:39:47;99262.47;;;25.79;100.00
49342;BME280;35210;41.606;-87.602;2023-07-29T07:42:16;99273.28;;;25.79;100.00
49342;BME280;35210;41.606;-87.602;2023-07-29T07:44:44;99276.59;;;25.81;100.00
49342;BME280;35210;41.606;-87.602;2023-07-29T07:47:14;99296.97;;;25.83;100.00
49342;BME280;35210;41.606;-87.602;2023-07-29T07:49:42;99306.47;;;25.93;100.00
49342;BME280;35210;41.606;-87.602;2023-07-29T07:52:10;99308.53;;;25.97;100.00
49342;BME280;35210;41.606;-87.602;2023-07-29T07:54:38;99325.19;;;25.94;100.00
49342;BME280;35210;41.606;-87.602;2023-07-29T07:57:07;99326.28;;;25.86;100.00
49342;BME280;35210;41.606;-87.602;2023-07-29T07:59:35;99336.50;;;25.84;100.00
49342;BME280;35210;41.606;-87.602;2023-07-29T08:02:04;99341.09;;;25.84;100.00
49342;BME280;35210;41.606;-87.602;2023-07-29T08:04:34;99353.56;;;25.85;100.00
49342;BME280;35210;41.606;-87.602;2023-07-29T08:07:02;99348.97;;;25.85;100.00
49342;BME280;35210;41.606;-87.602;2023-07-29T08:09:30;99356.66;;;25.89;100.00
49342;BME280;35210;41.606;-87.602;2023-07-29T08:11:58;99344.56;;;25.91;100.00
49342;BME280;35210;41.606;-87.602;2023-07-29T08:14:27;99332.09;;;25.90;100.00
49342;BME280;35210;41.606;-87.602;2023-07-29T08:16:55;99338.94;;;25.93;100.00
49342;BME280;35210;41.606;-87.602;2023-07-29T08:19:23;99335.19;;;25.94;100.00
49342;BME280;35210;41.606;-87.602;2023-07-29T08:21:53;99336.47;;;25.91;100.00
49342;BME280;35210;41.606;-87.602;2023-07-29T08:24:22;99339.78;;;25.93;100.00
49342;BME280;35210;41.606;-87.602;2023-07-29T08:26:50;99343.97;;;25.89;100.00
49342;BME280;35210;41.606;-87.602;2023-07-29T08:29:18;99339.00;;;25.86;100.00
49342;BME280;35210;41.606;-87.602;2023-07-29T08:31:46;99354.84;;;25.82;100.00
49342;BME280;35210;41.606;-87.602;2023-07-29T08:34:14;99361.06;;;25.83;100.00
49342;BME280;35210;41.606;-87.602;2023-07-29T08:36:43;99371.06;;;25.82;100.00
49342;BME280;35210;41.606;-87.602;2023-07-29T08:39:14;99378.34;;;25.82;100.00
49342;BME280;35210;41.606;-87.602;2023-07-29T08:41:48;99386.06;;;25.78;100.00
49342;BME280;35210;41.606;-87.602;2023-07-29T08:44:21;99388.56;;;25.80;100.00
49342;BME280;35210;41.606;-87.602;2023-07-29T08:46:50;99385.66;;;25.75;100.00
49342;BME280;35210;41.606;-87.602;2023-07-29T08:49:20;99380.25;;;25.75;100.00
49342;BME280;35210;41.606;-87.602;2023-07-29T08:51:50;99403.56;;;25.76;100.00
49342;BME280;35210;41.606;-87.602;2023-07-29T08:54:20;99405.66;;;25.74;100.00
49342;BME280;35210;41.606;-87.602;2023-07-29T08:56:49;99407.53;;;25.73;100.00
49342;BME280;35210;41.606;-87.602;2023-07-29T08:59:18;99397.97;;;25.71;100.00
49342;BME280;35210;41.606;-87.602;2023-07-29T09:01:47;99413.59;;;25.69;100.00
49342;BME280;35210;41.606;-87.602;2023-07-29T09:04:15;99422.13;;;25.66;100.00
49342;BME280;35210;41.606;-87.602;2023-07-29T09:06:44;99423.16;;;25.65;100.00
49342;BME280;35210;41.606;-87.602;2023-07-29T09:09:14;99417.75;;;25.65;100.00
49342;BME280;35210;41.606;-87.602;2023-07-29T09:11:44;99419.63;;;25.64;100.00
49342;BME280;35210;41.606;-87.602;2023-07-29T09:14:13;99417.31;;;25.61;100.00
49342;BME280;35210;41.606;-87.602;2023-07-29T09:16:42;99411.72;;;25.63;100.00
49342;BME280;35210;41.606;-87.602;2023-07-29T09:19:11;99402.56;;;25.64;100.00
49342;BME280;35210;41.606;-87.602;2023-07-29T09:21:39;99395.28;;;25.64;100.00
49342;BME280;35210;41.606;-87.602;2023-07-29T09:24:08;99390.50;;;25.60;100.00
49342;BME280;35210;41.606;-87.602;2023-07-29T09:26:36;99394.88;;;25.61;100.00
49342;BME280;35210;41.606;-87.602;2023-07-29T09:29:06;99390.06;;;25.63;100.00
49342;BME280;35210;41.606;-87.602;2023-07-29T09:31:34;99383.66;;;25.57;100.00
49342;BME280;35210;41.606;-87.602;2023-07-29T09:34:03;99390.31;;;25.54;100.00
49342;BME280;35210;41.606;-87.602;2023-07-29T09:36:33;99390.13;;;25.49;100.00
49342;BME280;35210;41.606;-87.602;2023-07-29T09:39:01;99399.06;;;25.50;100.00
49342;BME280;35210;41.606;-87.602;2023-07-29T09:41:31;99382.84;;;25.50;100.00
49342;BME280;35210;41.606;-87.602;2023-07-29T09:44:01;99390.13;;;25.49;100.00
49342;BME280;35210;41.606;-87.602;2023-07-29T09:46:34;99381.63;;;25.46;100.00
49342;BME280;35210;41.606;-87.602;2023-07-29T09:49:03;99377.88;;;25.47;100.00
49342;BME280;35210;41.606;-87.602;2023-07-29T09:51:32;99372.47;;;25.47;100.00
49342;BME280;35210;41.606;-87.602;2023-07-29T09:54:05;99375.56;;;25.50;100.00
49342;BME280;35210;41.606;-87.602;2023-07-29T09:56:33;99376.44;;;25.44;100.00
49342;BME280;35210;41.606;-87.602;2023-07-29T09:59:07;99375.22;;;25.40;100.00
49342;BME280;35210;41.606;-87.602;2023-07-29T10:01:37;99371.69;;;25.40;100.00
49342;BME280;35210;41.606;-87.602;2023-07-29T10:04:05;99377.28;;;25.38;100.00
49342;BME280;35210;41.606;-87.602;2023-07-29T10:06:35;99383.75;;;25.37;100.00
49342;BME280;35210;41.606;-87.602;2023-07-29T10:09:04;99374.19;;;25.35;100.00
49342;BME280;35210;41.606;-87.602;2023-07-29T10:11:33;99371.88;;;25.38;100.00
49342;BME280;35210;41.606;-87.602;2023-07-29T10:14:01;99371.28;;;25.36;100.00
49342;BME280;35210;41.606;-87.602;2023-07-29T10:16:30;99368.78;;;25.35;100.00
49342;BME280;35210;41.606;-87.602;2023-07-29T10:19:00;99370.88;;;25.33;100.00
49342;BME280;35210;41.606;-87.602;2023-07-29T10:21:29;99363.81;;;25.32;100.00
49342;BME280;35210;41.606;-87.602;2023-07-29T10:24:00;99369.84;;;25.27;100.00
49342;BME280;35210;41.606;-87.602;2023-07-29T10:26:31;99378.44;;;25.24;100.00
49342;BME280;35210;41.606;-87.602;2023-07-29T10:29:00;99371.97;;;25.25;100.00
49342;BME280;35210;41.606;-87.602;2023-07-29T10:31:32;99369.31;;;25.18;100.00
49342;BME280;35210;41.606;-87.602;2023-07-29T10:34:03;99370.56;;;25.16;100.00
49342;BME280;35210;41.606;-87.602;2023-07-29T10:36:31;99377.00;;;25.15;100.00
49342;BME280;35210;41.606;-87.602;2023-07-29T10:39:00;99370.97;;;25.13;100.00
49342;BME280;35210;41.606;-87.602;2023-07-29T10:44:50;99378.06;;;25.07;100.00
49342;BME280;35210;41.606;-87.602;2023-07-29T10:47:21;99373.31;;;25.03;100.00
49342;BME280;35210;41.606;-87.602;2023-07-29T10:49:52;99372.69;;;25.01;100.00
49342;BME280;35210;41.606;-87.602;2023-07-29T10:52:39;99371.03;;;25.00;100.00
49342;BME280;35210;41.606;-87.602;2023-07-29T10:55:26;99378.50;;;24.98;100.00
49342;BME280;35210;41.606;-87.602;2023-07-29T10:58:11;99395.53;;;25.05;100.00
49342;BME280;35210;41.606;-87.602;2023-07-29T11:00:42;99406.09;;;25.13;100.00
49342;BME280;35210;41.606;-87.602;2023-07-29T11:03:12;99411.72;;;25.11;100.00
49342;BME280;35210;41.606;-87.602;2023-07-29T11:05:49;99421.53;;;24.99;100.00
49342;BME280;35210;41.606;-87.602;2023-07-29T11:08:22;99411.75;;;24.92;100.00
49342;BME280;35210;41.606;-87.602;2023-07-29T11:11:04;99425.06;;;24.80;100.00
49342;BME280;35210;41.606;-87.602;2023-07-29T11:13:34;99436.91;;;24.72;100.00
49342;BME280;35210;41.606;-87.602;2023-07-29T11:16:03;99431.31;;;24.67;100.00
49342;BME280;35210;41.606;-87.602;2023-07-29T11:18:33;99442.50;;;24.64;100.00
49342;BME280;35210;41.606;-87.602;2023-07-29T11:21:04;99440.22;;;24.61;100.00
49342;BME280;35210;41.606;-87.602;2023-07-29T11:23:34;99443.56;;;24.63;100.00
49342;BME280;35210;41.606;-87.602;2023-07-29T11:26:03;99444.81;;;24.54;100.00
49342;BME280;35210;41.606;-87.602;2023-07-29T11:28:38;99438.59;;;24.47;100.00
49342;BME280;35210;41.606;-87.602;2023-07-29T11:31:06;99434.66;;;24.43;100.00
49342;BME280;35210;41.606;-87.602;2023-07-29T11:33:38;99432.38;;;24.40;100.00
49342;BME280;35210;41.606;-87.602;2023-07-29T11:36:17;99425.09;;;24.40;100.00
49342;BME280;35210;41.606;-87.602;2023-07-29T11:38:46;99427.19;;;24.45;100.00
49342;BME280;35210;41.606;-87.602;2023-07-29T11:41:19;99426.78;;;24.48;100.00
49342;BME280;35210;41.606;-87.602;2023-07-29T11:43:49;99431.34;;;24.47;100.00
49342;BME280;35210;41.606;-87.602;2023-07-29T11:46:22;99428.44;;;24.49;100.00
49342;BME280;35210;41.606;-87.602;2023-07-29T11:48:50;99429.47;;;24.48;100.00
49342;BME280;35210;41.606;-87.602;2023-07-29T11:51:20;99436.31;;;24.50;100.00
49342;BME280;35210;41.606;-87.602;2023-07-29T11:53:51;99439.00;;;24.50;100.00
49342;BME280;35210;41.606;-87.602;2023-07-29T11:56:19;99447.50;;;24.54;100.00
49342;BME280;35210;41.606;-87.602;2023-07-29T11:58:48;99445.63;;;24.61;100.00
49342;BME280;35210;41.606;-87.602;2023-07-29T12:01:17;99437.94;;;24.58;100.00
49342;BME280;35210;41.606;-87.602;2023-07-29T12:03:45;99440.03;;;24.56;100.00
49342;BME280;35210;41.606;-87.602;2023-07-29T12:06:14;99451.84;;;24.62;100.00
49342;BME280;35210;41.606;-87.602;2023-07-29T12:08:44;99451.25;;;24.60;100.00
49342;BME280;35210;41.606;-87.602;2023-07-29T12:11:13;99448.75;;;24.58;100.00
49342;BME280;35210;41.606;-87.602;2023-07-29T12:13:42;99456.63;;;24.60;100.00
49342;BME280;35210;41.606;-87.602;2023-07-29T12:16:10;99459.34;;;24.60;100.00
49342;BME280;35210;41.606;-87.602;2023-07-29T12:18:43;99468.88;;;24.62;100.00
49342;BME280;35210;41.606;-87.602;2023-07-29T12:21:14;99480.94;;;24.66;100.00
49342;BME280;35210;41.606;-87.602;2023-07-29T12:23:44;99481.56;;;24.68;100.00
49342;BME280;35210;41.606;-87.602;2023-07-29T12:26:12;99490.06;;;24.72;100.00
49342;BME280;35210;41.606;-87.602;2023-07-29T12:28:46;99491.31;;;24.69;100.00
49342;BME280;35210;41.606;-87.602;2023-07-29T12:31:14;99498.19;;;24.72;100.00
49342;BME280;35210;41.606;-87.602;2023-07-29T12:33:42;99507.72;;;24.74;100.00
49342;BME280;35210;41.606;-87.602;2023-07-29T12:36:11;99508.16;;;24.84;100.00
49342;BME280;35210;41.606;-87.602;2023-07-29T12:38:39;99505.66;;;24.83;100.00
49342;BME280;35210;41.606;-87.602;2023-07-29T12:41:08;99501.09;;;24.83;100.00
49342;BME280;35210;41.606;-87.602;2023-07-29T12:43:37;99504.41;;;24.85;100.00
49342;BME280;35210;41.606;-87.602;2023-07-29T12:46:05;99512.94;;;24.82;100.00
49342;BME280;35210;41.606;-87.602;2023-07-29T12:48:33;99515.00;;;24.87;100.00
49342;BME280;35210;41.606;-87.602;2023-07-29T12:51:01;99520.19;;;24.88;100.00